Time;durP1;ratioP1;P1;durP2;ratioP2;P2;SDS_P1;SDS_P2;PMS_P1;PMS_P2;Temp;Humidity;BMP_temperature;BMP_pressure;BME280_temperature;BME280_humidity;BME280_pressure;Samples;Min_cycle;Max_cycle;Signal;HPM_P1;HPM_P2
2023/04/12 00:01:53;;;;;;;5.43;2.97;;;20.80;62.70;;;;;;4899890;28;93868;-87
2023/04/12 00:04:21;;;;;;;6.33;2.87;;;20.80;62.60;;;;;;4811549;28;1402165;-87
2023/04/12 00:06:47;;;;;;;7.57;3.22;;;20.70;62.50;;;;;;4844052;29;91962;-88
2023/04/12 00:09:16;;;;;;;5.47;2.88;;;20.70;62.50;;;;;;4843688;28;93909;-88
2023/04/12 00:11:41;;;;;;;4.55;2.60;;;20.70;62.40;;;;;;4843485;29;93481;-87
2023/04/12 00:14:07;;;;;;;5.38;3.17;;;20.70;62.60;;;;;;4862152;28;93705;-87
2023/04/12 00:16:34;;;;;;;5.20;2.40;;;20.70;62.40;;;;;;4848039;29;92647;-89
2023/04/12 00:19:02;;;;;;;4.75;2.78;;;20.70;62.40;;;;;;4876555;28;93337;-88
2023/04/12 00:21:28;;;;;;;4.38;2.35;;;20.70;62.50;;;;;;4890687;28;94860;-88
2023/04/12 00:23:54;;;;;;;5.32;2.67;;;20.70;62.50;;;;;;4918761;28;92251;-89
2023/04/12 00:26:24;;;;;;;6.70;3.08;;;20.70;62.50;;;;;;4917644;28;92795;-88
2023/04/12 00:28:50;;;;;;;4.07;2.10;;;20.70;62.60;;;;;;4921123;28;94044;-88
2023/04/12 00:31:15;;;;;;;5.35;2.15;;;20.60;62.50;;;;;;4917690;28;92988;-88
2023/04/12 00:33:41;;;;;;;4.50;2.70;;;20.60;62.60;;;;;;4921151;28;93139;-87
2023/04/12 00:36:07;;;;;;;6.00;2.88;;;20.60;62.40;;;;;;4897513;28;93042;-87
2023/04/12 00:38:33;;;;;;;4.60;2.55;;;20.60;62.40;;;;;;4920498;28;94871;-88
2023/04/12 00:40:59;;;;;;;5.65;2.88;;;20.60;62.40;;;;;;4920727;28;94051;-88
2023/04/12 00:43:26;;;;;;;3.83;2.42;;;20.60;62.50;;;;;;4920466;28;92359;-88
2023/04/12 00:45:55;;;;;;;4.65;2.42;;;20.60;62.70;;;;;;4917329;28;92569;-88
2023/04/12 00:48:22;;;;;;;3.80;2.30;;;20.60;62.70;;;;;;4917658;28;93137;-88
2023/04/12 00:50:48;;;;;;;3.45;2.08;;;20.60;62.50;;;;;;4929543;28;92848;-87
2023/04/12 00:53:14;;;;;;;6.28;2.80;;;20.50;62.50;;;;;;4963898;28;92241;-87
2023/04/12 00:55:42;;;;;;;6.28;2.50;;;20.60;62.50;;;;;;4971383;28;92304;-87
2023/04/12 00:58:08;;;;;;;6.00;2.70;;;20.50;62.40;;;;;;4972670;28;95572;-86
2023/04/12 01:00:34;;;;;;;3.80;2.22;;;20.60;62.60;;;;;;4973278;28;95202;-88
2023/04/12 01:03:01;;;;;;;4.13;2.22;;;20.50;62.50;;;;;;4983201;28;93333;-87
2023/04/12 01:05:27;;;;;;;4.60;2.35;;;20.50;62.50;;;;;;4991292;28;92756;-88
2023/04/12 01:08:22;;;;;;;4.60;2.15;;;20.50;62.50;;;;;;4976230;28;94197;-88
2023/04/12 01:11:22;;;;;;;4.93;2.30;;;20.50;62.40;;;;;;4994386;28;97289;-88
2023/04/12 01:13:57;;;;;;;5.28;2.70;;;20.50;62.30;;;;;;4994566;28;92899;-86
2023/04/12 01:16:43;;;;;;;5.00;2.60;;;20.50;62.40;;;;;;4969857;28;92537;-89
2023/04/12 01:19:28;;;;;;;6.22;2.65;;;20.50;62.20;;;;;;4939267;28;94948;-87
2023/04/12 01:22:23;;;;;;;4.75;2.47;;;20.50;62.20;;;;;;4939199;28;93146;-88
2023/04/12 01:25:09;;;;;;;4.60;2.25;;;20.50;62.10;;;;;;4941761;28;92266;-87
2023/04/12 01:27:44;;;;;;;4.65;2.25;;;20.50;62.30;;;;;;4920932;28;92831;-88
2023/04/12 01:30:14;;;;;;;5.13;2.63;;;20.40;62.10;;;;;;4936763;28;94505;-88
2023/04/12 01:32:44;;;;;;;4.85;2.30;;;20.40;62.10;;;;;;4920665;28;96500;-88
2023/04/12 01:35:10;;;;;;;3.83;2.03;;;20.40;62.20;;;;;;4938216;28;93022;-87
2023/04/12 01:37:36;;;;;;;4.97;2.25;;;20.40;62.20;;;;;;4921711;28;92205;-87
2023/04/12 01:40:04;;;;;;;3.67;2.20;;;20.40;62.10;;;;;;4936467;28;94065;-88
2023/04/12 01:42:31;;;;;;;4.40;2.17;;;20.40;62.00;;;;;;4951935;28;93160;-88
2023/04/12 01:44:57;;;;;;;4.50;2.55;;;20.40;62.00;;;;;;4959957;28;93104;-87
2023/04/12 01:47:23;;;;;;;5.07;2.08;;;20.40;62.10;;;;;;4961475;28;91940;-87
2023/04/12 01:50:05;;;;;;;5.07;2.10;;;20.40;62.10;;;;;;4983964;28;92893;-88
2023/04/12 01:52:35;;;;;;;3.75;2.17;;;20.40;62.10;;;;;;4990333;28;93260;-88
2023/04/12 01:55:04;;;;;;;4.15;2.13;;;20.40;62.10;;;;;;4932587;28;93898;-88
2023/04/12 01:57:31;;;;;;;4.43;2.38;;;20.40;62.00;;;;;;4949997;28;93389;-88
2023/04/12 01:59:59;;;;;;;3.25;2.03;;;20.40;62.90;;;;;;4934253;28;94788;-87
2023/04/12 02:02:25;;;;;;;5.03;2.40;;;20.40;62.10;;;;;;4951594;28;93793;-88
2023/04/12 02:04:51;;;;;;;4.07;2.10;;;20.30;62.10;;;;;;4950899;28;93010;-88
2023/04/12 02:07:19;;;;;;;3.38;2.00;;;20.30;62.10;;;;;;4933267;28;92670;-89
2023/04/12 02:09:45;;;;;;;3.25;1.85;;;20.30;62.00;;;;;;4950918;28;92793;-88
2023/04/12 02:12:11;;;;;;;3.28;1.98;;;20.30;61.90;;;;;;4947431;28;93506;-88
2023/04/12 02:14:37;;;;;;;4.03;2.17;;;20.30;62.00;;;;;;4932629;28;92433;-88
2023/04/12 02:17:03;;;;;;;4.07;1.85;;;20.30;62.10;;;;;;4951291;28;93002;-89
2023/04/12 02:19:29;;;;;;;3.33;2.20;;;20.30;62.00;;;;;;4949055;28;94310;-86
2023/04/12 02:21:55;;;;;;;3.58;2.10;;;20.30;62.00;;;;;;4949983;28;93701;-89
2023/04/12 02:24:20;;;;;;;5.03;2.33;;;20.30;61.90;;;;;;4951834;28;92485;-88
2023/04/12 02:26:48;;;;;;;4.50;2.25;;;20.20;62.00;;;;;;4928668;28;92876;-90
2023/04/12 02:29:14;;;;;;;4.00;2.00;;;20.20;62.10;;;;;;4929793;28;94534;-86
2023/04/12 02:31:40;;;;;;;4.57;1.92;;;20.20;61.90;;;;;;4932879;28;92951;-87
2023/04/12 02:34:06;;;;;;;3.75;2.28;;;20.20;61.80;;;;;;4946524;28;92692;-87
2023/04/12 02:36:32;;;;;;;2.25;1.67;;;20.20;61.70;;;;;;4933670;28;91732;-89
2023/04/12 02:38:57;;;;;;;4.30;2.33;;;20.20;61.60;;;;;;4947830;28;94747;-88
2023/04/12 02:41:23;;;;;;;3.95;2.17;;;20.20;61.80;;;;;;4931650;28;94361;-86
2023/04/12 02:43:49;;;;;;;4.05;2.05;;;20.20;61.70;;;;;;4951902;28;93316;-88
2023/04/12 02:46:21;;;;;;;4.35;2.30;;;20.20;61.70;;;;;;4948295;28;93229;-86
2023/04/12 02:48:47;;;;;;;5.28;2.20;;;20.20;61.70;;;;;;4932419;28;96599;-87
2023/04/12 02:51:13;;;;;;;4.35;2.10;;;20.20;61.60;;;;;;4964999;28;94705;-87
2023/04/12 02:53:38;;;;;;;3.40;1.90;;;20.20;61.70;;;;;;4968198;28;92067;-88
2023/04/12 02:56:04;;;;;;;3.90;2.00;;;20.20;61.60;;;;;;4955442;28;92710;-89
2023/04/12 02:58:32;;;;;;;3.67;2.10;;;20.20;61.70;;;;;;4955856;28;96914;-87
2023/04/12 03:00:58;;;;;;;3.00;1.45;;;20.20;61.70;;;;;;4964367;28;93453;-87
2023/04/12 03:03:25;;;;;;;2.72;1.77;;;20.20;61.70;;;;;;4968417;28;92759;-88
2023/04/12 03:05:54;;;;;;;4.38;2.05;;;20.20;61.60;;;;;;4966813;28;92756;-89
2023/04/12 03:08:20;;;;;;;3.78;1.75;;;20.20;61.60;;;;;;4969812;28;93665;-88
2023/04/12 03:10:46;;;;;;;2.35;1.58;;;20.20;61.70;;;;;;4949105;28;95384;-86
2023/04/12 03:13:12;;;;;;;2.38;1.45;;;20.10;61.70;;;;;;4948843;28;93401;-84
2023/04/12 03:15:38;;;;;;;3.67;1.92;;;20.10;61.50;;;;;;4946658;28;93002;-86
2023/04/12 03:18:04;;;;;;;3.05;1.95;;;20.10;61.60;;;;;;4949126;28;92689;-85
2023/04/12 03:20:30;;;;;;;2.72;1.80;;;20.10;61.60;;;;;;4932716;28;94200;-85
2023/04/12 03:22:55;;;;;;;3.30;1.75;;;20.10;61.60;;;;;;4948549;28;92847;-86
2023/04/12 03:25:21;;;;;;;3.13;1.85;;;20.10;61.60;;;;;;4950646;28;92201;-84
2023/04/12 03:27:47;;;;;;;3.72;2.00;;;20.10;61.70;;;;;;4949405;28;94372;-86
2023/04/12 03:30:13;;;;;;;2.88;1.75;;;20.10;61.60;;;;;;4964051;28;93537;-83
2023/04/12 03:32:39;;;;;;;4.18;1.60;;;20.10;61.70;;;;;;4954856;28;93505;-85
2023/04/12 03:35:06;;;;;;;2.80;1.70;;;20.10;61.60;;;;;;4972839;28;92072;-88
2023/04/12 03:37:33;;;;;;;3.28;1.58;;;20.10;61.50;;;;;;4932905;28;92910;-86
2023/04/12 03:39:59;;;;;;;3.60;1.65;;;20.10;61.70;;;;;;4928635;28;92016;-89
2023/04/12 03:42:26;;;;;;;2.33;1.55;;;20.10;61.80;;;;;;4944968;28;92932;-87
2023/04/12 03:44:51;;;;;;;3.17;1.75;;;20.10;61.60;;;;;;4949607;28;92753;-86
2023/04/12 03:47:18;;;;;;;2.97;1.77;;;20.10;61.80;;;;;;4948779;28;93489;-87
2023/04/12 03:49:43;;;;;;;3.33;1.90;;;20.10;61.70;;;;;;4946675;28;92964;-86
2023/04/12 03:52:09;;;;;;;1.63;1.27;;;20.10;61.70;;;;;;4948222;28;92279;-86
2023/04/12 03:54:35;;;;;;;2.67;1.45;;;20.10;61.80;;;;;;4948167;28;92459;-87
2023/04/12 03:57:01;;;;;;;4.03;1.73;;;20.10;61.70;;;;;;4949252;28;94669;-86
2023/04/12 03:59:27;;;;;;;3.35;2.03;;;20.10;61.80;;;;;;4942560;28;94460;-88
2023/04/12 04:01:56;;;;;;;2.33;1.55;;;20.10;61.70;;;;;;4871428;28;92834;-86
2023/04/12 04:04:22;;;;;;;3.07;1.80;;;20.10;61.80;;;;;;4866682;28;92837;-86
2023/04/12 04:06:49;;;;;;;3.10;1.60;;;20.00;61.60;;;;;;4868797;28;95021;-86
2023/04/12 04:09:15;;;;;;;3.83;1.85;;;20.00;61.60;;;;;;4886168;28;93563;-87
2023/04/12 04:11:40;;;;;;;2.67;1.40;;;20.00;61.70;;;;;;4894106;28;92721;-87
2023/04/12 04:14:07;;;;;;;2.95;1.50;;;20.00;61.70;;;;;;4896878;28;91338;-87
2023/04/12 04:16:32;;;;;;;2.55;1.50;;;20.00;61.70;;;;;;4891193;28;94816;-87
2023/04/12 04:18:58;;;;;;;2.75;2.00;;;20.00;61.70;;;;;;4895099;28;93861;-87
2023/04/12 04:21:23;;;;;;;3.83;1.50;;;20.00;61.70;;;;;;4894366;28;94214;-87
2023/04/12 04:23:50;;;;;;;2.40;1.60;;;20.00;61.70;;;;;;4890730;28;92830;-86
2023/04/12 04:26:16;;;;;;;3.65;1.58;;;20.00;61.70;;;;;;4916349;28;93556;-86
2023/04/12 04:28:46;;;;;;;2.45;1.50;;;20.00;61.70;;;;;;4883355;28;94538;-89
2023/04/12 04:31:12;;;;;;;2.45;1.58;;;20.00;61.60;;;;;;4881196;28;92070;-88
2023/04/12 04:33:38;;;;;;;2.75;1.42;;;20.00;61.60;;;;;;4882989;28;93173;-87
2023/04/12 04:36:06;;;;;;;3.10;1.88;;;20.00;61.80;;;;;;4887082;28;93325;-85
2023/04/12 04:38:32;;;;;;;2.58;1.73;;;20.00;61.50;;;;;;4886462;28;94475;-88
2023/04/12 04:41:01;;;;;;;3.35;1.88;;;20.00;61.50;;;;;;4934619;28;93311;-86
2023/04/12 04:43:32;;;;;;;3.15;1.30;;;20.00;61.60;;;;;;4932678;28;92934;-88
2023/04/12 04:45:59;;;;;;;3.20;1.60;;;20.00;61.60;;;;;;4931908;28;93800;-88
2023/04/12 04:48:25;;;;;;;3.22;1.40;;;20.00;61.10;;;;;;4933657;28;94226;-86
2023/04/12 04:50:52;;;;;;;1.92;1.33;;;20.00;60.80;;;;;;4934407;28;92393;-88
2023/04/12 04:53:21;;;;;;;2.67;1.40;;;20.00;61.10;;;;;;4932152;28;94023;-91
2023/04/12 04:55:47;;;;;;;2.28;1.50;;;20.00;61.20;;;;;;4917006;28;95067;-87
2023/04/12 04:58:15;;;;;;;2.05;1.40;;;20.00;61.30;;;;;;4930861;28;94780;-88
2023/04/12 05:00:43;;;;;;;3.80;1.63;;;20.00;61.20;;;;;;4952455;28;93228;-88
2023/04/12 05:03:10;;;;;;;2.13;1.37;;;20.00;60.50;;;;;;4982483;28;92165;-88
2023/04/12 05:05:36;;;;;;;3.47;1.73;;;20.00;60.40;;;;;;4992471;28;93636;-87
2023/04/12 05:08:01;;;;;;;1.70;1.30;;;20.10;60.20;;;;;;4994750;28;92799;-87
2023/04/12 05:10:27;;;;;;;1.52;1.10;;;20.00;59.80;;;;;;4971486;28;93304;-87
2023/04/12 05:12:52;;;;;;;2.88;1.70;;;20.00;59.90;;;;;;4977010;28;92592;-87
2023/04/12 05:15:19;;;;;;;2.42;1.33;;;20.00;59.60;;;;;;4990925;28;93999;-88
2023/04/12 05:17:45;;;;;;;2.60;1.52;;;20.00;59.70;;;;;;4952582;28;92668;-87
2023/04/12 05:20:10;;;;;;;2.13;1.30;;;20.00;59.50;;;;;;4953588;28;91878;-87
2023/04/12 05:22:36;;;;;;;4.53;1.35;;;20.00;59.50;;;;;;4953838;28;92626;-87
2023/04/12 05:25:02;;;;;;;2.70;1.20;;;20.00;59.10;;;;;;4940720;28;95899;-86
2023/04/12 05:27:29;;;;;;;5.07;1.55;;;20.10;58.70;;;;;;4955481;28;93222;-89
2023/04/12 05:29:58;;;;;;;3.15;1.40;;;20.00;58.80;;;;;;4957348;28;93010;-83
2023/04/12 05:32:24;;;;;;;4.50;1.70;;;20.00;59.10;;;;;;4956632;28;92034;-87
2023/04/12 05:34:51;;;;;;;2.83;1.30;;;20.10;59.10;;;;;;4919176;28;94288;-88
2023/04/12 05:37:17;;;;;;;4.97;1.73;;;20.10;59.80;;;;;;4919293;28;93438;-88
2023/04/12 05:39:42;;;;;;;4.78;1.50;;;20.10;59.80;;;;;;4917927;28;92664;-90
2023/04/12 05:42:08;;;;;;;5.47;1.80;;;20.00;60.10;;;;;;4919116;28;92230;-88
2023/04/12 05:44:35;;;;;;;12.43;2.42;;;20.00;60.30;;;;;;4918326;28;92633;-89
2023/04/12 05:47:02;;;;;;;7.90;2.75;;;20.10;60.20;;;;;;4920227;28;93659;-88
2023/04/12 05:49:30;;;;;;;12.40;3.38;;;20.20;60.30;;;;;;4933484;28;92061;-93
2023/04/12 05:51:55;;;;;;;8.70;2.33;;;20.20;60.30;;;;;;4898580;28;91723;-87
2023/04/12 05:54:21;;;;;;;8.32;2.50;;;20.30;60.50;;;;;;4877005;28;93071;-85
2023/04/12 05:56:47;;;;;;;8.18;3.55;;;20.40;60.10;;;;;;4876178;28;94417;-87
2023/04/12 05:59:12;;;;;;;11.10;3.40;;;20.50;60.20;;;;;;4860465;28;93471;-89
2023/04/12 06:01:41;;;;;;;13.65;4.15;;;20.70;60.50;;;;;;4859450;29;92275;-89
2023/04/12 06:04:07;;;;;;;10.93;3.50;;;20.70;60.60;;;;;;4856249;28;94874;-90
2023/04/12 06:06:33;;;;;;;11.77;3.22;;;20.80;60.50;;;;;;4887045;28;95160;-90
2023/04/12 06:09:03;;;;;;;11.30;3.72;;;20.90;60.60;;;;;;4896724;28;92996;-90
2023/04/12 06:11:30;;;;;;;16.20;3.80;;;20.90;60.60;;;;;;4893906;28;92640;-91
2023/04/12 06:13:56;;;;;;;11.70;3.67;;;21.00;60.30;;;;;;4889321;28;94047;-87
2023/04/12 06:16:21;;;;;;;13.90;4.07;;;21.00;60.50;;;;;;4892634;28;92962;-89
2023/04/12 06:18:47;;;;;;;11.93;3.65;;;21.10;61.00;;;;;;4896799;28;92825;-90
2023/04/12 06:21:13;;;;;;;14.07;4.28;;;21.10;61.00;;;;;;4879699;28;92181;-90
2023/04/12 06:23:38;;;;;;;17.42;4.32;;;21.10;61.10;;;;;;4888413;28;96384;-93
2023/04/12 06:26:04;;;;;;;16.17;3.83;;;21.10;61.10;;;;;;4911374;28;93242;-91
2023/04/12 06:28:30;;;;;;;13.32;3.85;;;21.10;61.20;;;;;;4908992;28;93118;-92
2023/04/12 06:30:56;;;;;;;13.40;3.97;;;21.10;61.00;;;;;;4912694;28;92578;-89
2023/04/12 06:33:21;;;;;;;15.77;4.35;;;21.10;61.40;;;;;;4934664;28;94727;-90
2023/04/12 06:35:48;;;;;;;11.98;4.03;;;21.00;61.80;;;;;;4941148;28;93646;-90
2023/04/12 06:38:14;;;;;;;16.65;4.22;;;21.00;61.90;;;;;;4983954;28;91914;-91
2023/04/12 06:40:39;;;;;;;15.98;4.32;;;21.00;62.20;;;;;;4910195;28;91972;-92
2023/04/12 06:43:06;;;;;;;11.68;4.10;;;20.90;62.20;;;;;;4931907;28;94276;-89
2023/04/12 06:45:34;;;;;;;9.73;3.70;;;20.90;62.50;;;;;;4938649;28;93663;-91
2023/04/12 06:48:00;;;;;;;12.85;3.42;;;20.90;62.40;;;;;;4947354;28;93605;-91
2023/04/12 06:50:26;;;;;;;11.68;3.97;;;20.90;63.00;;;;;;4965835;28;92592;-91
2023/04/12 06:52:52;;;;;;;10.45;3.63;;;20.90;62.70;;;;;;4946131;28;95973;-92
2023/04/12 06:55:18;;;;;;;10.35;3.85;;;20.80;63.30;;;;;;4945814;28;94188;-88
2023/04/12 06:57:44;;;;;;;13.85;3.88;;;20.80;62.90;;;;;;4962921;28;92372;-91
2023/04/12 07:00:11;;;;;;;17.27;4.13;;;20.90;63.90;;;;;;4945518;28;92755;-94
2023/04/12 07:02:43;;;;;;;10.15;3.05;;;20.90;63.30;;;;;;4939439;28;94067;-90
2023/04/12 07:05:08;;;;;;;15.65;4.05;;;20.90;63.70;;;;;;4925878;28;95861;-88
2023/04/12 07:07:34;;;;;;;10.75;3.53;;;20.90;63.30;;;;;;4959159;28;92449;-84
2023/04/12 07:10:02;;;;;;;9.68;3.00;;;21.00;61.90;;;;;;4948015;28;92808;-91
2023/04/12 07:12:27;;;;;;;12.63;3.90;;;21.10;61.90;;;;;;4932443;28;95748;-90
2023/04/12 07:14:53;;;;;;;39.13;9.52;;;21.10;61.40;;;;;;4948118;28;95798;-91
2023/04/12 07:17:20;;;;;;;26.02;6.93;;;21.20;60.90;;;;;;4953862;28;92431;-88
2023/04/12 07:19:46;;;;;;;28.10;7.25;;;21.20;60.70;;;;;;4897245;28;92795;-89
2023/04/12 07:22:12;;;;;;;31.75;9.32;;;21.30;60.20;;;;;;4898405;28;93582;-90
2023/04/12 07:24:37;;;;;;;40.38;10.07;;;21.40;60.20;;;;;;4876155;28;94596;-88
2023/04/12 07:27:03;;;;;;;31.77;10.40;;;21.40;60.50;;;;;;4899056;28;92958;-91
2023/04/12 07:29:29;;;;;;;36.97;10.43;;;21.50;60.50;;;;;;4885309;28;91906;-92
2023/04/12 07:31:54;;;;;;;40.63;10.95;;;21.50;60.40;;;;;;4901545;28;95643;-92
2023/04/12 07:34:20;;;;;;;47.40;12.20;;;21.60;60.60;;;;;;4897708;28;94896;-90
2023/04/12 07:36:45;;;;;;;39.83;10.80;;;21.60;60.40;;;;;;4895659;28;93895;-89
2023/04/12 07:39:13;;;;;;;38.95;11.35;;;21.70;60.90;;;;;;4901739;28;92779;-91
2023/04/12 07:41:42;;;;;;;33.17;10.73;;;21.70;60.80;;;;;;4884012;28;93680;-91
2023/04/12 07:44:07;;;;;;;35.40;11.25;;;21.70;60.60;;;;;;4901548;28;93416;-90
2023/04/12 07:46:33;;;;;;;30.85;10.80;;;21.70;60.80;;;;;;4901004;28;92570;-88
2023/04/12 07:48:59;;;;;;;39.60;11.10;;;21.70;60.80;;;;;;4900655;28;92142;-88
2023/04/12 07:51:27;;;;;;;38.85;10.48;;;21.70;60.90;;;;;;4915635;28;94811;-89
2023/04/12 07:53:53;;;;;;;33.63;10.90;;;21.70;61.00;;;;;;4895693;28;93280;-87
2023/04/12 07:56:19;;;;;;;41.05;10.88;;;21.70;61.10;;;;;;4917685;28;92515;-89
2023/04/12 07:58:44;;;;;;;35.80;10.57;;;21.80;61.50;;;;;;4934628;28;93106;-90
2023/04/12 08:01:12;;;;;;;34.83;11.40;;;21.80;61.80;;;;;;4926374;28;94985;-91
2023/04/12 08:03:37;;;;;;;30.92;10.65;;;21.80;61.90;;;;;;4926199;28;94849;-90
2023/04/12 08:06:04;;;;;;;29.40;9.77;;;21.80;62.20;;;;;;4915788;28;92685;-90
2023/04/12 08:08:30;;;;;;;34.10;11.07;;;21.70;62.30;;;;;;4906552;28;92730;-91
2023/04/12 08:10:56;;;;;;;32.08;10.00;;;21.80;62.40;;;;;;4920568;28;92782;-91
2023/04/12 08:13:21;;;;;;;33.88;10.75;;;21.80;62.50;;;;;;4923158;28;92914;-91
2023/04/12 08:15:47;;;;;;;36.47;10.93;;;21.80;62.60;;;;;;4904140;28;92181;-90
2023/04/12 08:18:13;;;;;;;30.40;9.40;;;21.90;63.00;;;;;;4912202;28;92424;-89
2023/04/12 08:20:39;;;;;;;27.80;8.95;;;21.90;63.00;;;;;;4885150;28;93536;-90
2023/04/12 08:23:06;;;;;;;26.20;9.00;;;21.90;63.20;;;;;;4884866;28;92730;-93
2023/04/12 08:25:33;;;;;;;28.23;9.25;;;21.90;63.10;;;;;;4888287;28;93673;-90
2023/04/12 08:27:58;;;;;;;31.25;8.73;;;22.00;63.10;;;;;;4905177;28;93180;-91
2023/04/12 08:30:25;;;;;;;24.13;8.70;;;22.00;63.30;;;;;;4903487;28;93710;-91
2023/04/12 08:32:52;;;;;;;35.78;10.07;;;22.00;62.90;;;;;;4883212;28;94158;-89
2023/04/12 08:35:18;;;;;;;29.13;10.40;;;22.00;62.70;;;;;;4886161;28;92985;-90
2023/04/12 08:37:44;;;;;;;24.92;8.88;;;22.00;63.10;;;;;;4903683;28;93158;-91
2023/04/12 08:40:11;;;;;;;28.98;9.15;;;22.00;62.90;;;;;;4888805;28;92810;-89
2023/04/12 08:42:37;;;;;;;26.50;9.23;;;22.00;63.20;;;;;;4898674;28;93421;-90
2023/04/12 08:45:12;;;;;;;27.85;8.45;;;21.90;63.10;;;;;;4905818;28;94931;-89
2023/04/12 08:47:43;;;;;;;20.75;8.27;;;22.00;63.50;;;;;;4905110;28;92635;-90
2023/04/12 08:50:12;;;;;;;22.33;8.00;;;22.00;63.30;;;;;;4903121;28;94658;-91
2023/04/12 08:52:39;;;;;;;31.73;9.27;;;22.10;63.40;;;;;;4868021;28;94874;-93
2023/04/12 08:55:09;;;;;;;23.95;8.98;;;22.10;63.20;;;;;;4903058;28;92481;-89
2023/04/12 08:57:35;;;;;;;27.30;9.23;;;22.20;63.20;;;;;;4911222;28;92945;-92
2023/04/12 09:00:02;;;;;;;22.95;8.68;;;22.20;62.80;;;;;;4910482;28;95576;-92
2023/04/12 09:02:28;;;;;;;21.83;7.93;;;22.20;62.90;;;;;;4925504;28;95984;-91
2023/04/12 09:04:55;;;;;;;29.30;8.23;;;22.30;62.90;;;;;;4916729;28;93208;-90
2023/04/12 09:07:22;;;;;;;21.50;7.78;;;22.20;62.80;;;;;;4909365;28;91718;-89
2023/04/12 09:09:50;;;;;;;23.75;8.02;;;22.30;62.50;;;;;;4917946;28;93487;-91
2023/04/12 09:12:18;;;;;;;24.75;7.00;;;22.20;62.50;;;;;;4922951;28;92777;-91
2023/04/12 09:14:44;;;;;;;20.05;7.40;;;22.20;61.30;;;;;;4927959;28;93456;-90
2023/04/12 09:17:27;;;;;;;18.42;7.30;;;22.20;61.30;;;;;;4924312;28;92709;-89
2023/04/12 09:19:55;;;;;;;16.50;6.35;;;22.30;61.30;;;;;;4923385;28;95165;-92
2023/04/12 09:22:43;;;;;;;15.75;6.60;;;22.30;61.60;;;;;;4910755;28;93748;-89
2023/04/12 09:25:09;;;;;;;24.35;9.13;;;22.20;61.70;;;;;;4944660;28;92324;-93
2023/04/12 09:27:45;;;;;;;19.83;8.18;;;22.20;61.90;;;;;;4953541;28;92697;-90
2023/04/12 09:30:12;;;;;;;22.73;8.98;;;22.30;61.60;;;;;;4936127;28;95582;-92
2023/04/12 09:32:37;;;;;;;28.10;9.73;;;22.40;61.80;;;;;;4905526;28;93753;-89
2023/04/12 09:35:04;;;;;;;19.75;9.05;;;22.40;61.70;;;;;;4925384;28;92621;-88
2023/04/12 09:37:30;;;;;;;21.80;10.27;;;22.40;61.00;;;;;;4914054;28;93029;-85
2023/04/12 09:40:04;;;;;;;22.27;10.70;;;22.40;61.00;;;;;;4901266;28;95116;-91
2023/04/12 09:42:33;;;;;;;26.58;9.73;;;22.40;61.40;;;;;;4891575;28;95475;-90
2023/04/12 09:45:00;;;;;;;21.58;9.15;;;22.40;61.50;;;;;;4892070;28;92366;-89
2023/04/12 09:47:39;;;;;;;21.17;8.90;;;22.40;61.40;;;;;;4855862;28;93160;-90
2023/04/12 09:50:18;;;;;;;21.35;8.48;;;22.40;61.40;;;;;;4904951;28;93092;-86
2023/04/12 09:52:44;;;;;;;;;;;22.40;61.40;;;;;;4892465;28;99660;-89
2023/04/12 09:55:11;;;;;;;25.30;9.18;;;22.40;61.50;;;;;;4894993;28;92822;-89
2023/04/12 09:57:41;;;;;;;22.83;9.10;;;22.40;61.80;;;;;;4890098;28;92471;-89
2023/04/12 10:00:15;;;;;;;17.90;7.72;;;22.40;61.80;;;;;;4869681;28;95949;-91
2023/04/12 10:02:43;;;;;;;22.02;8.18;;;22.30;62.10;;;;;;4877672;28;93422;-88
2023/04/12 10:05:14;;;;;;;22.80;7.82;;;22.30;62.10;;;;;;4892393;28;93771;-88
2023/04/12 10:07:43;;;;;;;17.92;7.85;;;22.30;62.60;;;;;;4890663;28;93388;-87
2023/04/12 10:10:11;;;;;;;52.00;15.15;;;22.30;60.80;;;;;;4893173;28;93105;-89
2023/04/12 10:12:41;;;;;;;42.65;13.40;;;22.30;61.50;;;;;;4891712;28;94863;-89
2023/04/12 10:15:19;;;;;;;62.25;16.60;;;22.20;61.40;;;;;;4902608;28;92767;-90
2023/04/12 10:17:51;;;;;;;48.17;16.10;;;22.20;62.00;;;;;;4884889;28;92635;-87
2023/04/12 10:20:18;;;;;;;78.32;20.98;;;22.20;62.10;;;;;;4901159;28;93912;-88
2023/04/12 10:22:49;;;;;;;63.33;19.05;;;22.10;62.40;;;;;;4884571;28;93629;-91
2023/04/12 10:25:18;;;;;;;65.78;20.67;;;22.20;62.70;;;;;;4925079;28;92477;-91
2023/04/12 10:27:45;;;;;;;85.57;22.27;;;22.20;62.70;;;;;;4924108;28;92415;-91
2023/04/12 10:30:28;;;;;;;90.47;27.23;;;22.20;61.90;;;;;;4920110;28;93886;-89
2023/04/12 10:33:13;;;;;;;135.07;39.22;;;22.10;62.20;;;;;;4911401;28;94983;-89
2023/04/12 10:35:59;;;;;;;149.10;43.58;;;22.10;62.90;;;;;;4926224;28;92967;-90
2023/04/12 10:38:29;;;;;;;191.35;53.45;;;22.10;63.60;;;;;;4924247;28;93022;-87
2023/04/12 10:41:18;;;;;;;186.52;52.13;;;22.10;63.90;;;;;;4922769;28;94389;-90
2023/04/12 10:43:45;;;;;;;160.15;46.45;;;22.10;65.40;;;;;;4931008;28;96860;-89
2023/04/12 10:46:39;;;;;;;172.80;47.85;;;22.10;64.80;;;;;;4937881;28;92723;-90
2023/04/12 10:49:14;;;;;;;160.70;45.58;;;22.10;65.40;;;;;;4925673;28;92180;-90
2023/04/12 10:52:00;;;;;;;151.38;45.42;;;22.10;65.60;;;;;;4943554;28;95324;-88
2023/04/12 10:54:25;;;;;;;158.82;45.42;;;22.20;66.10;;;;;;4933255;28;94680;-90
2023/04/12 10:56:51;;;;;;;151.02;43.72;;;22.20;66.60;;;;;;4949522;28;93654;-88
2023/04/12 10:59:17;;;;;;;134.43;42.92;;;22.30;66.60;;;;;;4948606;28;93139;-90
2023/04/12 11:02:09;;;;;;;147.10;45.38;;;22.30;66.50;;;;;;4900276;28;94907;-89
2023/04/12 11:04:35;;;;;;;143.13;42.38;;;22.30;66.10;;;;;;4887443;28;93641;-91
2023/04/12 11:07:06;;;;;;;133.65;41.80;;;22.30;66.50;;;;;;4895284;28;92758;-88
2023/04/12 11:09:32;;;;;;;134.70;40.10;;;22.30;67.00;;;;;;4895013;28;92564;-89
2023/04/12 11:12:03;;;;;;;126.03;37.95;;;22.30;65.60;;;;;;4881149;28;96731;-89
2023/04/12 11:14:36;;;;;;;135.05;41.08;;;22.40;66.60;;;;;;4883913;28;94279;-89
2023/04/12 11:17:07;;;;;;;124.55;38.90;;;22.50;66.00;;;;;;4896251;28;92651;-90
2023/04/12 11:19:39;;;;;;;117.88;36.40;;;22.40;66.70;;;;;;4910601;28;92973;-90
2023/04/12 11:22:06;;;;;;;135.52;41.03;;;22.40;66.10;;;;;;4892261;28;94016;-88
2023/04/12 11:24:32;;;;;;;128.73;38.67;;;22.40;66.40;;;;;;4897988;28;95003;-86
2023/04/12 11:26:59;;;;;;;110.32;38.30;;;22.40;66.70;;;;;;4892854;28;92782;-89
2023/04/12 11:29:28;;;;;;;114.20;38.47;;;22.40;67.30;;;;;;4907950;28;92375;-89
2023/04/12 11:31:54;;;;;;;117.30;37.03;;;22.50;67.10;;;;;;4913197;28;94095;-84
2023/04/12 11:34:21;;;;;;;126.00;39.03;;;22.50;67.10;;;;;;4896682;28;94794;-86
2023/04/12 11:36:50;;;;;;;116.63;37.72;;;22.60;66.60;;;;;;4901394;28;92426;-86
2023/04/12 11:39:17;;;;;;;110.72;36.80;;;22.70;66.50;;;;;;4898984;28;91735;-90
2023/04/12 11:41:47;;;;;;;110.85;37.13;;;22.60;66.50;;;;;;4896374;28;94150;-85
2023/04/12 11:44:17;;;;;;;102.50;34.45;;;22.70;66.30;;;;;;4895419;28;95329;-84
2023/04/12 11:46:44;;;;;;;112.75;35.10;;;22.70;66.10;;;;;;4896674;28;93438;-86
2023/04/12 11:49:09;;;;;;;96.18;33.10;;;22.70;66.10;;;;;;4898720;28;92852;-85
2023/04/12 11:51:35;;;;;;;98.32;31.30;;;22.70;66.00;;;;;;4883956;28;92617;-84
2023/04/12 11:54:01;;;;;;;94.65;33.08;;;22.70;66.10;;;;;;4888800;28;95204;-85
2023/04/12 11:56:28;;;;;;;103.00;34.08;;;22.80;66.20;;;;;;4896972;28;92688;-89
2023/04/12 11:58:54;;;;;;;86.68;30.00;;;22.80;66.10;;;;;;4898902;28;92857;-88
2023/04/12 12:01:21;;;;;;;83.32;31.60;;;22.80;65.10;;;;;;4897590;28;94189;-89
2023/04/12 12:03:48;;;;;;;95.55;31.63;;;22.80;66.00;;;;;;4896383;28;92090;-87
2023/04/12 12:06:15;;;;;;;79.97;29.65;;;22.80;66.10;;;;;;4924596;28;92499;-88
2023/04/12 12:08:41;;;;;;;82.05;27.83;;;22.80;65.60;;;;;;4928548;28;92648;-88
2023/04/12 12:11:07;;;;;;;77.05;26.25;;;22.70;65.20;;;;;;4924068;28;95559;-89
2023/04/12 12:13:46;;;;;;;84.78;28.38;;;22.70;64.90;;;;;;4927842;28;93228;-85
2023/04/12 12:16:12;;;;;;;67.82;23.92;;;22.70;64.90;;;;;;4926540;28;92713;-85
2023/04/12 12:18:42;;;;;;;69.30;24.83;;;22.60;63.50;;;;;;4924882;28;92966;-86
2023/04/12 12:21:09;;;;;;;61.20;23.77;;;22.70;63.30;;;;;;4923910;28;93342;-90
2023/04/12 12:23:35;;;;;;;72.47;25.00;;;22.70;63.80;;;;;;4922529;28;96092;-88
2023/04/12 12:26:05;;;;;;;60.97;23.63;;;22.80;64.00;;;;;;4910067;28;93070;-88
2023/04/12 12:28:36;;;;;;;57.15;22.70;;;22.70;63.70;;;;;;4905626;28;92051;-88
2023/04/12 12:31:11;;;;;;;66.60;24.70;;;22.70;64.40;;;;;;4872927;28;96928;-88
2023/04/12 12:33:38;;;;;;;62.30;23.23;;;22.70;65.10;;;;;;4871207;28;94798;-87
2023/04/12 12:36:05;;;;;;;65.00;22.88;;;22.80;65.40;;;;;;4898838;28;93477;-89
2023/04/12 12:38:38;;;;;;;58.33;22.30;;;22.70;66.30;;;;;;4838423;28;92256;-88
2023/04/12 12:41:19;;;;;;;56.03;21.83;;;22.70;66.50;;;;;;4809335;29;97345;-90
2023/04/12 12:43:49;;;;;;;58.25;21.38;;;22.70;67.40;;;;;;4816301;29;95998;-89